< < Back
Terminal Aerodrome Forecast


Current Version              Previous Versions:   1  2  3  4  5  6  7  8  9  

Terminal Aerodrome Forecast

363
FTUS42 KTAE 032320
TAFABY
TAF
KABY 032320Z 0400/0424 12005KT P6SM FEW060=

Latest METAR

619
SAUS70 KWBC 042300
MTRABY
METAR KABY 042253Z 11006KT 10SM SCT080 27/10 A3022 RMK AO2 SLP231
T02720100


USA.gov is the U.S. government's official web portal to all federal, state and local government web resources and services.